Thunder radar more information blitzortung!


Radar de pluja more information rain snow radar


Visita la nostra xarxa de llocs de meteo:

Template documentation
and downloads

And another site



No particular awareness of the weather is required.    There are no Weather-warnings

Pagina Historial Weather Underground text

Diari Resum January 23, 2018 Unitats:  Tant    Imperial   Mètric
« Previous Dia
SegĂźent Dia »
Diari Setmana Mensual Anual Personalitzada
  Maxima: Minima: Media:
Temperatura: TemperatureC °F /  -17.8 °C 6.0 °F /  -14.4 °C 11 °F /  -11.7 °C
Punt de rosada: DewpointC °F /  -17.8 °C 2.8 °F /  -16.2 °C 5 °F /  -15 °C
Humitat: Humidity % 55 % 67 %
Wind Speed: WindSpeedKMH mph /  0 km/h - 3.9 mph /  6.3 km/h
RĂ fegues de vent: WindSpeedGustKMH mph /  0 km/h - -
Vent:- - SSE
Pression baro: PressurehPa in /  0 hPa 1023.9 in /  34669.3 hPa -
Precipitacions: 0.0 in /  0 mm    
Historical Graphs
 
 
Dades de taula per January 23, 2018
Temps Temperatura Punt de rosada Pression baro Vent Wind Speed RĂ fegues de vent Humitat Rainfall Rate (Hourly)
TemperatureC °F /  -17.8 °C DewpointC °F /  -17.8 °C PressurehPa in /  0 hPa Calm     Humidity % HourlyPrecipMM in /  0 mm
00:00 11.9 °F /  -11.2 °C 4.6 °F /  -15.2 °C 1026.0 in /  34740.4 hPa Calm   4.8 mph /  7.7 km/h 61 % 0.0 in /  0 mm
00:05 11.7 °F /  -11.3 °C 4.4 °F /  -15.3 °C 1026.0 in /  34740.4 hPa NNE 3.2 mph /  5.1 km/h 4.8 mph /  7.7 km/h 61 % 0.0 in /  0 mm
00:10 11.6 °F /  -11.3 °C 4.3 °F /  -15.4 °C 1026.0 in /  34740.4 hPa Calm     61 % 0.0 in /  0 mm
00:15 11.5 °F /  -11.4 °C 4.2 °F /  -15.4 °C 1026.0 in /  34740.4 hPa NE 1.9 mph /  3.1 km/h 1.9 mph /  3.1 km/h 61 % 0.0 in /  0 mm
00:20 11.3 °F /  -11.5 °C 4.1 °F /  -15.5 °C 1026.0 in /  34740.4 hPa WNW 2.6 mph /  4.2 km/h 2.6 mph /  4.2 km/h 61 % 0.0 in /  0 mm
00:25 11.2 °F /  -11.6 °C 4.2 °F /  -15.4 °C 1026.0 in /  34740.4 hPa Calm     62 % 0.0 in /  0 mm
00:30 11.1 °F /  -11.6 °C 4.1 °F /  -15.5 °C 1026.0 in /  34740.4 hPa WNW 3.7 mph /  6 km/h 3.7 mph /  6 km/h 62 % 0.0 in /  0 mm
00:35 11.1 °F /  -11.6 °C 4.1 °F /  -15.5 °C 1024.9 in /  34703.1 hPa NW 1.9 mph /  3.1 km/h 1.9 mph /  3.1 km/h 62 % 0.0 in /  0 mm
00:40 11.2 °F /  -11.6 °C 4.4 °F /  -15.3 °C 1024.9 in /  34703.1 hPa NE 3.7 mph /  6 km/h 3.7 mph /  6 km/h 63 % 0.0 in /  0 mm
00:45 11.3 °F /  -11.5 °C 4.5 °F /  -15.3 °C 1024.9 in /  34703.1 hPa NNE 5.6 mph /  9 km/h 5.6 mph /  9 km/h 63 % 0.0 in /  0 mm
00:50 11.1 °F /  -11.6 °C 4.3 °F /  -15.4 °C 1024.9 in /  34703.1 hPa NE 1.9 mph /  3.1 km/h 1.9 mph /  3.1 km/h 63 % 0.0 in /  0 mm
00:55 11.0 °F /  -11.7 °C 4.2 °F /  -15.4 °C 1024.9 in /  34703.1 hPa Calm     63 % 0.0 in /  0 mm
01:00 10.9 °F /  -11.7 °C 4.1 °F /  -15.5 °C 1024.9 in /  34703.1 hPa WNW 3.7 mph /  6 km/h 3.7 mph /  6 km/h 63 % 0.0 in /  0 mm
01:05 10.9 °F /  -11.7 °C 4.3 °F /  -15.4 °C 1024.9 in /  34703.1 hPa NNE 3.7 mph /  6 km/h 3.7 mph /  6 km/h 64 % 0.0 in /  0 mm
01:10 10.8 °F /  -11.8 °C 4.3 °F /  -15.4 °C 1024.9 in /  34703.1 hPa WNW 3.2 mph /  5.1 km/h 3.2 mph /  5.1 km/h 64 % 0.0 in /  0 mm
01:15 10.7 °F /  -11.8 °C 4.2 °F /  -15.4 °C 1024.9 in /  34703.1 hPa NW 1.9 mph /  3.1 km/h   64 % 0.0 in /  0 mm
01:20 10.7 °F /  -11.8 °C 4.2 °F /  -15.4 °C 1024.9 in /  34703.1 hPa WNW 2.3 mph /  3.7 km/h 2.3 mph /  3.7 km/h 64 % 0.0 in /  0 mm
01:25 10.6 °F /  -11.9 °C 4.1 °F /  -15.5 °C 1024.9 in /  34703.1 hPa NNE 1.9 mph /  3.1 km/h   64 % 0.0 in /  0 mm
01:30 10.5 °F /  -11.9 °C 4.2 °F /  -15.4 °C 1024.9 in /  34703.1 hPa ENE 1.9 mph /  3.1 km/h 1.9 mph /  3.1 km/h 65 % 0.0 in /  0 mm
01:35 10.5 °F /  -11.9 °C 4.2 °F /  -15.4 °C 1024.9 in /  34703.1 hPa NNE 1.9 mph /  3.1 km/h   65 % 0.0 in /  0 mm
01:40 10.4 °F /  -12 °C 4.1 °F /  -15.5 °C 1024.9 in /  34703.1 hPa NNE 1.9 mph /  3.1 km/h   65 % 0.0 in /  0 mm
01:50 10.3 °F /  -12.1 °C 4.0 °F /  -15.6 °C 1024.9 in /  34703.1 hPa West 5.6 mph /  9 km/h 5.6 mph /  9 km/h 65 % 0.0 in /  0 mm
01:56 10.2 °F /  -12.1 °C 3.9 °F /  -15.6 °C 1024.9 in /  34703.1 hPa NNE 3.9 mph /  6.3 km/h 3.9 mph /  6.3 km/h 65 % 0.0 in /  0 mm
02:06 10.2 °F /  -12.1 °C 3.9 °F /  -15.6 °C 1026.0 in /  34740.4 hPa WSW 3.9 mph /  6.3 km/h 3.9 mph /  6.3 km/h 65 % 0.0 in /  0 mm
02:11 10.2 °F /  -12.1 °C 3.9 °F /  -15.6 °C 1026.0 in /  34740.4 hPa WSW 3.7 mph /  6 km/h 3.7 mph /  6 km/h 65 % 0.0 in /  0 mm
02:21 10.2 °F /  -12.1 °C 3.9 °F /  -15.6 °C 1023.9 in /  34669.3 hPa WSW 3.7 mph /  6 km/h 3.7 mph /  6 km/h 65 % 0.0 in /  0 mm
02:31 10.6 °F /  -11.9 °C 4.5 °F /  -15.3 °C 1023.9 in /  34669.3 hPa WNW 3.7 mph /  6 km/h 3.7 mph /  6 km/h 66 % 0.0 in /  0 mm
02:36 10.9 °F /  -11.7 °C 4.8 °F /  -15.1 °C 1023.9 in /  34669.3 hPa WSW 7.4 mph /  11.9 km/h 7.4 mph /  11.9 km/h 66 % 0.0 in /  0 mm
02:41 11.1 °F /  -11.6 °C 5.0 °F /  -15 °C 1023.9 in /  34669.3 hPa West 5.6 mph /  9 km/h 5.6 mph /  9 km/h 66 % 0.0 in /  0 mm
02:46 11.2 °F /  -11.6 °C 5.3 °F /  -14.8 °C 1024.9 in /  34703.1 hPa ENE 5.6 mph /  9 km/h 5.6 mph /  9 km/h 67 % 0.0 in /  0 mm
02:51 11.2 °F /  -11.6 °C 5.3 °F /  -14.8 °C 1024.9 in /  34703.1 hPa ENE 4.7 mph /  7.6 km/h 4.7 mph /  7.6 km/h 67 % 0.0 in /  0 mm
03:01 9.9 °F /  -12.3 °C 3.8 °F /  -15.7 °C 1024.9 in /  34703.1 hPa West 3.7 mph /  6 km/h 3.7 mph /  6 km/h 66 % 0.0 in /  0 mm
03:06 9.6 °F /  -12.4 °C 3.6 °F /  -15.8 °C 1024.9 in /  34703.1 hPa West 3.9 mph /  6.3 km/h 3.9 mph /  6.3 km/h 66 % 0.0 in /  0 mm
03:11 9.5 °F /  -12.5 °C 3.7 °F /  -15.7 °C 1024.9 in /  34703.1 hPa WSW 3.7 mph /  6 km/h   67 % 0.0 in /  0 mm
03:16 9.6 °F /  -12.4 °C 4.0 °F /  -15.6 °C 1026.0 in /  34740.4 hPa NE 1.9 mph /  3.1 km/h   68 % 0.0 in /  0 mm
03:21 9.7 °F /  -12.4 °C 4.1 °F /  -15.5 °C 1026.0 in /  34740.4 hPa NNE 3.7 mph /  6 km/h 3.7 mph /  6 km/h 68 % 0.0 in /  0 mm
03:31 9.4 °F /  -12.6 °C 3.8 °F /  -15.7 °C 1026.0 in /  34740.4 hPa ENE 3.7 mph /  6 km/h 3.7 mph /  6 km/h 68 % 0.0 in /  0 mm
03:37 9.4 °F /  -12.6 °C 4.0 °F /  -15.6 °C 1026.0 in /  34740.4 hPa WSW 1.9 mph /  3.1 km/h 1.9 mph /  3.1 km/h 69 % 0.0 in /  0 mm
03:47 9.1 °F /  -12.7 °C 3.7 °F /  -15.7 °C 1026.0 in /  34740.4 hPa WSW 2.3 mph /  3.7 km/h   69 % 0.0 in /  0 mm
03:52 9.1 °F /  -12.7 °C 3.5 °F /  -15.8 °C 1026.0 in /  34740.4 hPa WSW 3.9 mph /  6.3 km/h 3.9 mph /  6.3 km/h 68 % 0.0 in /  0 mm
03:57 9.0 °F /  -12.8 °C 3.6 °F /  -15.8 °C 1026.0 in /  34740.4 hPa Calm     69 % 0.0 in /  0 mm
04:02 9.0 °F /  -12.8 °C 3.8 °F /  -15.7 °C 1026.0 in /  34740.4 hPa Calm     70 % 0.0 in /  0 mm
04:07 9.0 °F /  -12.8 °C 3.6 °F /  -15.8 °C 1026.0 in /  34740.4 hPa WSW 3.7 mph /  6 km/h 3.9 mph /  6.3 km/h 69 % 0.0 in /  0 mm
04:12 8.9 °F /  -12.8 °C 3.5 °F /  -15.8 °C 1026.0 in /  34740.4 hPa WSW 3.2 mph /  5.1 km/h 3.2 mph /  5.1 km/h 69 % 0.0 in /  0 mm
04:17 8.8 °F /  -12.9 °C 3.4 °F /  -15.9 °C 1026.0 in /  34740.4 hPa WSW 1.9 mph /  3.1 km/h   69 % 0.0 in /  0 mm
04:22 8.6 °F /  -13 °C 3.2 °F /  -16 °C 1026.0 in /  34740.4 hPa West 3.9 mph /  6.3 km/h 3.9 mph /  6.3 km/h 69 % 0.0 in /  0 mm
04:27 8.5 °F /  -13.1 °C 3.1 °F /  -16.1 °C 1026.0 in /  34740.4 hPa WNW 2.3 mph /  3.7 km/h 2.3 mph /  3.7 km/h 69 % 0.0 in /  0 mm
04:32 8.6 °F /  -13 °C 3.2 °F /  -16 °C 1026.0 in /  34740.4 hPa WNW 3.7 mph /  6 km/h 3.7 mph /  6 km/h 69 % 0.0 in /  0 mm
04:37 8.7 °F /  -12.9 °C 3.6 °F /  -15.8 °C 1026.0 in /  34740.4 hPa NE 1.9 mph /  3.1 km/h   70 % 0.0 in /  0 mm
04:42 8.6 °F /  -13 °C 3.6 °F /  -15.8 °C 1026.0 in /  34740.4 hPa NNW 1.9 mph /  3.1 km/h   71 % 0.0 in /  0 mm
04:47 8.8 °F /  -12.9 °C 3.6 °F /  -15.8 °C 1026.0 in /  34740.4 hPa NNW 3.7 mph /  6 km/h 3.7 mph /  6 km/h 70 % 0.0 in /  0 mm
04:57 8.6 °F /  -13 °C 3.6 °F /  -15.8 °C 1026.0 in /  34740.4 hPa NNE 5.6 mph /  9 km/h 5.6 mph /  9 km/h 71 % 0.0 in /  0 mm
05:07 8.5 °F /  -13.1 °C 3.7 °F /  -15.7 °C 1024.9 in /  34703.1 hPa Calm     72 % 0.0 in /  0 mm
05:12 8.4 °F /  -13.1 °C 3.4 °F /  -15.9 °C 1024.9 in /  34703.1 hPa Calm     71 % 0.0 in /  0 mm
05:17 8.3 °F /  -13.2 °C 3.3 °F /  -15.9 °C 1026.0 in /  34740.4 hPa WNW 2.6 mph /  4.2 km/h 2.6 mph /  4.2 km/h 71 % 0.0 in /  0 mm
05:22 8.4 °F /  -13.1 °C 3.4 °F /  -15.9 °C 1026.0 in /  34740.4 hPa NW 3.7 mph /  6 km/h   71 % 0.0 in /  0 mm
05:27 8.3 °F /  -13.2 °C 3.3 °F /  -15.9 °C 1026.0 in /  34740.4 hPa WNW 1.9 mph /  3.1 km/h 1.9 mph /  3.1 km/h 71 % 0.0 in /  0 mm
05:32 8.3 °F /  -13.2 °C 3.3 °F /  -15.9 °C 1026.0 in /  34740.4 hPa WNW 3.2 mph /  5.1 km/h 3.2 mph /  5.1 km/h 71 % 0.0 in /  0 mm
05:37 8.4 °F /  -13.1 °C 3.7 °F /  -15.7 °C 1026.0 in /  34740.4 hPa North 1.9 mph /  3.1 km/h 1.9 mph /  3.1 km/h 72 % 0.0 in /  0 mm
05:47 8.4 °F /  -13.1 °C 3.7 °F /  -15.7 °C 1026.0 in /  34740.4 hPa West 2.3 mph /  3.7 km/h 2.3 mph /  3.7 km/h 72 % 0.0 in /  0 mm
05:52 8.3 °F /  -13.2 °C 3.6 °F /  -15.8 °C 1026.0 in /  34740.4 hPa NNE 3.7 mph /  6 km/h 3.7 mph /  6 km/h 72 % 0.0 in /  0 mm
05:57 8.5 °F /  -13.1 °C 3.9 °F /  -15.6 °C 1026.0 in /  34740.4 hPa NNE 7.4 mph /  11.9 km/h 7.4 mph /  11.9 km/h 73 % 0.0 in /  0 mm
06:02 8.4 °F /  -13.1 °C 3.7 °F /  -15.7 °C 1024.9 in /  34703.1 hPa NNE 3.2 mph /  5.1 km/h   72 % 0.0 in /  0 mm
06:07 8.4 °F /  -13.1 °C 3.7 °F /  -15.7 °C 1024.9 in /  34703.1 hPa ENE 7.4 mph /  11.9 km/h 7.4 mph /  11.9 km/h 72 % 0.0 in /  0 mm
06:12 8.3 °F /  -13.2 °C 3.7 °F /  -15.7 °C 1024.9 in /  34703.1 hPa ENE 3.7 mph /  6 km/h 3.7 mph /  6 km/h 73 % 0.0 in /  0 mm
06:17 8.3 °F /  -13.2 °C 3.6 °F /  -15.8 °C 1026.0 in /  34740.4 hPa ENE 3.9 mph /  6.3 km/h 3.9 mph /  6.3 km/h 72 % 0.0 in /  0 mm
06:22 8.3 °F /  -13.2 °C 3.7 °F /  -15.7 °C 1026.0 in /  34740.4 hPa NNW 5.6 mph /  9 km/h 5.6 mph /  9 km/h 73 % 0.0 in /  0 mm
06:27 8.3 °F /  -13.2 °C 3.7 °F /  -15.7 °C 1026.0 in /  34740.4 hPa WNW 3.7 mph /  6 km/h 3.7 mph /  6 km/h 73 % 0.0 in /  0 mm
06:32 8.2 °F /  -13.2 °C 3.7 °F /  -15.7 °C 1026.0 in /  34740.4 hPa NE 3.7 mph /  6 km/h 3.7 mph /  6 km/h 73 % 0.0 in /  0 mm
06:37 8.2 °F /  -13.2 °C 3.7 °F /  -15.7 °C 1026.0 in /  34740.4 hPa North 3.7 mph /  6 km/h 3.7 mph /  6 km/h 73 % 0.0 in /  0 mm
06:47 8.1 °F /  -13.3 °C 3.6 °F /  -15.8 °C 1027.0 in /  34774.2 hPa North 5.6 mph /  9 km/h 5.6 mph /  9 km/h 73 % 0.0 in /  0 mm
07:02 8.0 °F /  -13.3 °C 3.4 °F /  -15.9 °C 1027.0 in /  34774.2 hPa NW 3.7 mph /  6 km/h   73 % 0.0 in /  0 mm
07:07 7.9 °F /  -13.4 °C 3.3 °F /  -15.9 °C 1027.0 in /  34774.2 hPa North 3.7 mph /  6 km/h 3.7 mph /  6 km/h 73 % 0.0 in /  0 mm
07:17 8.1 °F /  -13.3 °C 3.7 °F /  -15.7 °C 1027.0 in /  34774.2 hPa NNE 3.7 mph /  6 km/h 3.7 mph /  6 km/h 74 % 0.0 in /  0 mm
07:22 8.0 °F /  -13.3 °C 3.7 °F /  -15.7 °C 1027.0 in /  34774.2 hPa NE 4.2 mph /  6.8 km/h 4.2 mph /  6.8 km/h 74 % 0.0 in /  0 mm
07:27 7.9 °F /  -13.4 °C 3.3 °F /  -15.9 °C 1027.0 in /  34774.2 hPa West 3.7 mph /  6 km/h 3.7 mph /  6 km/h 73 % 0.0 in /  0 mm
07:32 7.8 °F /  -13.4 °C 3.4 °F /  -15.9 °C 1027.0 in /  34774.2 hPa West 1.9 mph /  3.1 km/h   74 % 0.0 in /  0 mm
07:37 7.7 °F /  -13.5 °C 3.2 °F /  -16 °C 1027.0 in /  34774.2 hPa WSW 3.9 mph /  6.3 km/h 3.9 mph /  6.3 km/h 73 % 0.0 in /  0 mm
07:42 7.4 °F /  -13.7 °C 3.1 °F /  -16.1 °C 1027.0 in /  34774.2 hPa SSW 1.9 mph /  3.1 km/h   74 % 0.0 in /  0 mm
07:47 7.4 °F /  -13.7 °C 3.1 °F /  -16.1 °C 1027.0 in /  34774.2 hPa ENE 3.7 mph /  6 km/h   74 % 0.0 in /  0 mm
07:52 7.6 °F /  -13.6 °C 3.3 °F /  -15.9 °C 1027.0 in /  34774.2 hPa WNW 3.7 mph /  6 km/h   74 % 0.0 in /  0 mm
07:57 7.7 °F /  -13.5 °C 3.6 °F /  -15.8 °C 1027.0 in /  34774.2 hPa NNE 3.7 mph /  6 km/h 3.7 mph /  6 km/h 75 % 0.0 in /  0 mm
08:02 7.7 °F /  -13.5 °C 3.6 °F /  -15.8 °C 1027.0 in /  34774.2 hPa WNW 2.3 mph /  3.7 km/h 2.3 mph /  3.7 km/h 75 % 0.0 in /  0 mm
08:07 7.7 °F /  -13.5 °C 3.3 °F /  -15.9 °C 1027.0 in /  34774.2 hPa WNW 3.7 mph /  6 km/h 3.7 mph /  6 km/h 74 % 0.0 in /  0 mm
08:12 7.6 °F /  -13.6 °C 3.3 °F /  -15.9 °C 1027.0 in /  34774.2 hPa NNE 5.6 mph /  9 km/h 5.6 mph /  9 km/h 74 % 0.0 in /  0 mm
08:22 7.5 °F /  -13.6 °C 3.2 °F /  -16 °C 1027.0 in /  34774.2 hPa Calm     74 % 0.0 in /  0 mm
08:27 7.7 °F /  -13.5 °C 3.6 °F /  -15.8 °C 1027.0 in /  34774.2 hPa WNW 1.9 mph /  3.1 km/h   75 % 0.0 in /  0 mm
08:32 7.8 °F /  -13.4 °C 3.7 °F /  -15.7 °C 1028.0 in /  34808.1 hPa WNW 1.9 mph /  3.1 km/h   75 % 0.0 in /  0 mm
08:37 8.1 °F /  -13.3 °C 3.9 °F /  -15.6 °C 1028.0 in /  34808.1 hPa WNW 1.9 mph /  3.1 km/h   75 % 0.0 in /  0 mm
08:42 8.2 °F /  -13.2 °C 4.1 °F /  -15.5 °C 1028.0 in /  34808.1 hPa NNE 3.7 mph /  6 km/h 3.7 mph /  6 km/h 75 % 0.0 in /  0 mm
08:47 8.5 °F /  -13.1 °C 4.3 °F /  -15.4 °C 1028.0 in /  34808.1 hPa NNE 3.9 mph /  6.3 km/h 3.9 mph /  6.3 km/h 75 % 0.0 in /  0 mm
08:52 8.6 °F /  -13 °C 4.4 °F /  -15.3 °C 1028.0 in /  34808.1 hPa NNE 3.7 mph /  6 km/h 3.7 mph /  6 km/h 75 % 0.0 in /  0 mm
08:57 8.8 °F /  -12.9 °C 4.4 °F /  -15.3 °C 1028.0 in /  34808.1 hPa NNE 3.7 mph /  6 km/h 3.7 mph /  6 km/h 74 % 0.0 in /  0 mm
09:02 8.9 °F /  -12.8 °C 4.5 °F /  -15.3 °C 1028.0 in /  34808.1 hPa ENE 3.7 mph /  6 km/h 3.7 mph /  6 km/h 74 % 0.0 in /  0 mm
09:07 9.0 °F /  -12.8 °C 4.4 °F /  -15.3 °C 1028.0 in /  34808.1 hPa ENE 5.6 mph /  9 km/h 5.6 mph /  9 km/h 73 % 0.0 in /  0 mm
09:12 9.2 °F /  -12.7 °C 4.6 °F /  -15.2 °C 1028.0 in /  34808.1 hPa NNE 2.3 mph /  3.7 km/h 2.3 mph /  3.7 km/h 73 % 0.0 in /  0 mm
09:17 9.3 °F /  -12.6 °C 4.7 °F /  -15.2 °C 1028.0 in /  34808.1 hPa NNE 4.7 mph /  7.6 km/h 4.7 mph /  7.6 km/h 73 % 0.0 in /  0 mm
09:22 9.4 °F /  -12.6 °C 4.6 °F /  -15.2 °C 1028.0 in /  34808.1 hPa NNW 3.5 mph /  5.6 km/h 3.5 mph /  5.6 km/h 72 % 0.0 in /  0 mm
09:27 9.6 °F /  -12.4 °C 4.8 °F /  -15.1 °C 1028.0 in /  34808.1 hPa NNE 2.3 mph /  3.7 km/h 2.3 mph /  3.7 km/h 72 % 0.0 in /  0 mm
09:32 9.8 °F /  -12.3 °C 5.0 °F /  -15 °C 1028.0 in /  34808.1 hPa NNW 4.2 mph /  6.8 km/h 4.2 mph /  6.8 km/h 72 % 0.0 in /  0 mm
09:37 10.0 °F /  -12.2 °C 5.2 °F /  -14.9 °C 1028.0 in /  34808.1 hPa West 3.7 mph /  6 km/h 3.7 mph /  6 km/h 72 % 0.0 in /  0 mm
09:42 10.2 °F /  -12.1 °C 5.2 °F /  -14.9 °C 1028.0 in /  34808.1 hPa North 3.9 mph /  6.3 km/h 3.9 mph /  6.3 km/h 71 % 0.0 in /  0 mm
09:52 10.0 °F /  -12.2 °C 4.8 °F /  -15.1 °C 1027.0 in /  34774.2 hPa NNE 7.4 mph /  11.9 km/h 7.4 mph /  11.9 km/h 70 % 0.0 in /  0 mm
09:57 10.1 °F /  -12.2 °C 4.9 °F /  -15.1 °C 1027.0 in /  34774.2 hPa North 9.3 mph /  15 km/h 9.3 mph /  15 km/h 70 % 0.0 in /  0 mm
10:07 10.4 °F /  -12 °C 5.4 °F /  -14.8 °C 1028.0 in /  34808.1 hPa NNE 5.6 mph /  9 km/h 5.6 mph /  9 km/h 71 % 0.0 in /  0 mm
10:12 10.6 °F /  -11.9 °C 5.3 °F /  -14.8 °C 1028.0 in /  34808.1 hPa NNE 3.7 mph /  6 km/h 3.7 mph /  6 km/h 70 % 0.0 in /  0 mm
10:17 10.9 °F /  -11.7 °C 5.7 °F /  -14.6 °C 1028.0 in /  34808.1 hPa NNE 4.7 mph /  7.6 km/h 4.7 mph /  7.6 km/h 70 % 0.0 in /  0 mm
10:22 10.7 °F /  -11.8 °C 5.2 °F /  -14.9 °C 1028.0 in /  34808.1 hPa NNE 9.3 mph /  15 km/h 9.3 mph /  15 km/h 69 % 0.0 in /  0 mm
10:27 10.6 °F /  -11.9 °C 5.2 °F /  -14.9 °C 1028.0 in /  34808.1 hPa NE 9.3 mph /  15 km/h 9.3 mph /  15 km/h 69 % 0.0 in /  0 mm
10:28 10.6 °F /  -11.9 °C 5.2 °F /  -14.9 °C 1028.0 in /  34808.1 hPa North 11.1 mph /  17.9 km/h 11.1 mph /  17.9 km/h 69 % 0.0 in /  0 mm
10:33 10.7 °F /  -11.8 °C 5.2 °F /  -14.9 °C 1028.0 in /  34808.1 hPa East 9.3 mph /  15 km/h 9.3 mph /  15 km/h 69 % 0.0 in /  0 mm
10:38 10.8 °F /  -11.8 °C 5.3 °F /  -14.8 °C 1028.0 in /  34808.1 hPa ENE 9.7 mph /  15.6 km/h 9.7 mph /  15.6 km/h 69 % 0.0 in /  0 mm
10:48 11.0 °F /  -11.7 °C 5.3 °F /  -14.8 °C 1029.0 in /  34841.9 hPa NE 5.6 mph /  9 km/h 5.6 mph /  9 km/h 68 % 0.0 in /  0 mm
10:53 11.0 °F /  -11.7 °C 5.3 °F /  -14.8 °C 1029.0 in /  34841.9 hPa NNE 9.3 mph /  15 km/h 9.3 mph /  15 km/h 68 % 0.0 in /  0 mm
10:58 11.1 °F /  -11.6 °C 5.4 °F /  -14.8 °C 1029.0 in /  34841.9 hPa NE 9.3 mph /  15 km/h 9.3 mph /  15 km/h 68 % 0.0 in /  0 mm
11:03 11.1 °F /  -11.6 °C 5.4 °F /  -14.8 °C 1029.0 in /  34841.9 hPa NE 5.0 mph /  8 km/h 5.0 mph /  8 km/h 68 % 0.0 in /  0 mm
11:08 11.1 °F /  -11.6 °C 5.2 °F /  -14.9 °C 1029.0 in /  34841.9 hPa NNE 13.0 mph /  20.9 km/h 13.0 mph /  20.9 km/h 67 % 0.0 in /  0 mm
11:13 11.5 °F /  -11.4 °C 5.8 °F /  -14.6 °C 1029.0 in /  34841.9 hPa ENE 5.6 mph /  9 km/h 5.6 mph /  9 km/h 68 % 0.0 in /  0 mm
11:18 11.7 °F /  -11.3 °C 5.8 °F /  -14.6 °C 1029.0 in /  34841.9 hPa West 5.6 mph /  9 km/h 5.6 mph /  9 km/h 67 % 0.0 in /  0 mm
11:23 11.8 °F /  -11.2 °C 5.9 °F /  -14.5 °C 1029.0 in /  34841.9 hPa NE 9.3 mph /  15 km/h 9.3 mph /  15 km/h 67 % 0.0 in /  0 mm
11:28 11.8 °F /  -11.2 °C 5.7 °F /  -14.6 °C 1029.0 in /  34841.9 hPa ENE 9.3 mph /  15 km/h 9.3 mph /  15 km/h 66 % 0.0 in /  0 mm
11:33 11.9 °F /  -11.2 °C 5.7 °F /  -14.6 °C 1029.0 in /  34841.9 hPa WNW 9.3 mph /  15 km/h 9.3 mph /  15 km/h 66 % 0.0 in /  0 mm
11:38 11.9 °F /  -11.2 °C 5.7 °F /  -14.6 °C 1029.0 in /  34841.9 hPa North 4.2 mph /  6.8 km/h 4.2 mph /  6.8 km/h 66 % 0.0 in /  0 mm
11:53 12.0 °F /  -11.1 °C 5.6 °F /  -14.7 °C 1029.0 in /  34841.9 hPa NW 7.4 mph /  11.9 km/h 7.4 mph /  11.9 km/h 65 % 0.0 in /  0 mm
11:58 12.3 °F /  -10.9 °C 5.9 °F /  -14.5 °C 1029.0 in /  34841.9 hPa NNE 7.4 mph /  11.9 km/h 7.4 mph /  11.9 km/h 65 % 0.0 in /  0 mm
12:03 12.2 °F /  -11 °C 5.8 °F /  -14.6 °C 1029.0 in /  34841.9 hPa NNE 9.3 mph /  15 km/h 9.3 mph /  15 km/h 65 % 0.0 in /  0 mm
12:08 12.4 °F /  -10.9 °C 6.0 °F /  -14.4 °C 1029.0 in /  34841.9 hPa NE 5.6 mph /  9 km/h 5.6 mph /  9 km/h 65 % 0.0 in /  0 mm
12:13 12.7 °F /  -10.7 °C 6.3 °F /  -14.3 °C 1029.0 in /  34841.9 hPa NE 4.2 mph /  6.8 km/h 4.2 mph /  6.8 km/h 65 % 0.0 in /  0 mm
12:18 12.7 °F /  -10.7 °C 6.3 °F /  -14.3 °C 1028.0 in /  34808.1 hPa NNW 7.4 mph /  11.9 km/h 7.4 mph /  11.9 km/h 65 % 0.0 in /  0 mm
12:23 12.7 °F /  -10.7 °C 6.1 °F /  -14.4 °C 1028.0 in /  34808.1 hPa NE 8.7 mph /  14 km/h 8.7 mph /  14 km/h 64 % 0.0 in /  0 mm
12:33 13.0 °F /  -10.6 °C 6.3 °F /  -14.3 °C 1028.0 in /  34808.1 hPa NNE 7.4 mph /  11.9 km/h 7.4 mph /  11.9 km/h 64 % 0.0 in /  0 mm
12:38 13.0 °F /  -10.6 °C 6.3 °F /  -14.3 °C 1028.0 in /  34808.1 hPa NE 7.4 mph /  11.9 km/h 7.4 mph /  11.9 km/h 64 % 0.0 in /  0 mm
12:43 13.2 °F /  -10.4 °C 6.3 °F /  -14.3 °C 1028.0 in /  34808.1 hPa NNE 11.1 mph /  17.9 km/h 11.1 mph /  17.9 km/h 63 % 0.0 in /  0 mm
12:48 13.4 °F /  -10.3 °C 6.7 °F /  -14.1 °C 1028.0 in /  34808.1 hPa NNE 9.3 mph /  15 km/h 9.3 mph /  15 km/h 64 % 0.0 in /  0 mm
12:53 13.8 °F /  -10.1 °C 6.9 °F /  -13.9 °C 1028.0 in /  34808.1 hPa NE 9.3 mph /  15 km/h 9.3 mph /  15 km/h 63 % 0.0 in /  0 mm
12:58 13.7 °F /  -10.2 °C 6.6 °F /  -14.1 °C 1028.0 in /  34808.1 hPa NNE 9.3 mph /  15 km/h 9.7 mph /  15.6 km/h 62 % 0.0 in /  0 mm
13:03 13.8 °F /  -10.1 °C 6.9 °F /  -13.9 °C 1027.0 in /  34774.2 hPa ENE 5.6 mph /  9 km/h 5.6 mph /  9 km/h 63 % 0.0 in /  0 mm
13:08 14.0 °F /  -10 °C 6.8 °F /  -14 °C 1027.0 in /  34774.2 hPa NNE 9.3 mph /  15 km/h 9.3 mph /  15 km/h 62 % 0.0 in /  0 mm
13:13 14.2 °F /  -9.9 °C 7.0 °F /  -13.9 °C 1027.0 in /  34774.2 hPa ENE 9.3 mph /  15 km/h 9.3 mph /  15 km/h 62 % 0.0 in /  0 mm
13:23 15.1 °F /  -9.4 °C 7.9 °F /  -13.4 °C 1027.0 in /  34774.2 hPa NE 7.4 mph /  11.9 km/h 7.4 mph /  11.9 km/h 62 % 0.0 in /  0 mm
13:28 15.8 °F /  -9 °C 8.3 °F /  -13.2 °C 1027.0 in /  34774.2 hPa WNW 4.7 mph /  7.6 km/h 4.7 mph /  7.6 km/h 61 % 0.0 in /  0 mm
13:33 16.0 °F /  -8.9 °C 8.2 °F /  -13.2 °C 1027.0 in /  34774.2 hPa SW 5.6 mph /  9 km/h 5.6 mph /  9 km/h 60 % 0.0 in /  0 mm
13:38 16.2 °F /  -8.8 °C 8.4 °F /  -13.1 °C 1027.0 in /  34774.2 hPa West 9.3 mph /  15 km/h 9.3 mph /  15 km/h 60 % 0.0 in /  0 mm
13:43 16.3 °F /  -8.7 °C 8.3 °F /  -13.2 °C 1027.0 in /  34774.2 hPa WNW 9.3 mph /  15 km/h 9.3 mph /  15 km/h 59 % 0.0 in /  0 mm
13:53 16.9 °F /  -8.4 °C 8.6 °F /  -13 °C 1027.0 in /  34774.2 hPa WSW 14.8 mph /  23.8 km/h 14.8 mph /  23.8 km/h 58 % 0.0 in /  0 mm
14:03 16.9 °F /  -8.4 °C 8.3 °F /  -13.2 °C 1027.0 in /  34774.2 hPa WNW 5.6 mph /  9 km/h 5.6 mph /  9 km/h 57 % 0.0 in /  0 mm
14:08 16.9 °F /  -8.4 °C 8.3 °F /  -13.2 °C 1027.0 in /  34774.2 hPa SW 4.7 mph /  7.6 km/h 4.7 mph /  7.6 km/h 57 % 0.0 in /  0 mm
14:13 17.1 °F /  -8.3 °C 8.2 °F /  -13.2 °C 1027.0 in /  34774.2 hPa SW 5.6 mph /  9 km/h 5.6 mph /  9 km/h 56 % 0.0 in /  0 mm
14:18 17.1 °F /  -8.3 °C 8.0 °F /  -13.3 °C 1027.0 in /  34774.2 hPa ESE 6.1 mph /  9.8 km/h 6.1 mph /  9.8 km/h 55 % 0.0 in /  0 mm
14:28 16.9 °F /  -8.4 °C 8.1 °F /  -13.3 °C 1027.0 in /  34774.2 hPa NNE 13.0 mph /  20.9 km/h 13.0 mph /  20.9 km/h 56 % 0.0 in /  0 mm
14:33 16.6 °F /  -8.6 °C 7.5 °F /  -13.6 °C 1027.0 in /  34774.2 hPa NNE 5.6 mph /  9 km/h 5.6 mph /  9 km/h 55 % 0.0 in /  0 mm
14:38 16.6 °F /  -8.6 °C 7.8 °F /  -13.4 °C 1027.0 in /  34774.2 hPa ENE 3.7 mph /  6 km/h 3.7 mph /  6 km/h 56 % 0.0 in /  0 mm
14:43 16.9 °F /  -8.4 °C 8.1 °F /  -13.3 °C 1027.0 in /  34774.2 hPa NE 3.7 mph /  6 km/h 3.7 mph /  6 km/h 56 % 0.0 in /  0 mm
14:48 17.0 °F /  -8.3 °C 7.9 °F /  -13.4 °C 1027.0 in /  34774.2 hPa NE 5.6 mph /  9 km/h 5.6 mph /  9 km/h 55 % 0.0 in /  0 mm
14:53 16.6 °F /  -8.6 °C 7.5 °F /  -13.6 °C 1027.0 in /  34774.2 hPa WSW 7.4 mph /  11.9 km/h 7.4 mph /  11.9 km/h 55 % 0.0 in /  0 mm
14:58 16.6 °F /  -8.6 °C 7.5 °F /  -13.6 °C 1027.0 in /  34774.2 hPa NE 3.7 mph /  6 km/h 3.7 mph /  6 km/h 55 % 0.0 in /  0 mm
15:13 16.3 °F /  -8.7 °C 7.5 °F /  -13.6 °C 1027.0 in /  34774.2 hPa NNE 8.7 mph /  14 km/h 8.7 mph /  14 km/h 56 % 0.0 in /  0 mm
15:18 16.1 °F /  -8.8 °C 7.3 °F /  -13.7 °C 1027.0 in /  34774.2 hPa East 9.3 mph /  15 km/h 9.3 mph /  15 km/h 56 % 0.0 in /  0 mm
15:28 15.9 °F /  -8.9 °C 7.1 °F /  -13.8 °C 1027.0 in /  34774.2 hPa NE 5.3 mph /  8.5 km/h 5.3 mph /  8.5 km/h 56 % 0.0 in /  0 mm
15:33 15.9 °F /  -8.9 °C 7.1 °F /  -13.8 °C 1027.0 in /  34774.2 hPa North 5.6 mph /  9 km/h 5.6 mph /  9 km/h 56 % 0.0 in /  0 mm
15:38 15.8 °F /  -9 °C 7.1 °F /  -13.8 °C 1027.0 in /  34774.2 hPa NNE 7.4 mph /  11.9 km/h 7.4 mph /  11.9 km/h 56 % 0.0 in /  0 mm
15:43 15.7 °F /  -9.1 °C 6.9 °F /  -13.9 °C 1027.0 in /  34774.2 hPa NE 4.2 mph /  6.8 km/h 4.2 mph /  6.8 km/h 56 % 0.0 in /  0 mm
15:48 15.8 °F /  -9 °C 7.1 °F /  -13.8 °C 1028.0 in /  34808.1 hPa NNE 5.6 mph /  9 km/h 5.6 mph /  9 km/h 56 % 0.0 in /  0 mm
15:53 15.9 °F /  -8.9 °C 7.1 °F /  -13.8 °C 1028.0 in /  34808.1 hPa North 7.4 mph /  11.9 km/h 7.4 mph /  11.9 km/h 56 % 0.0 in /  0 mm
15:58 15.8 °F /  -9 °C 7.1 °F /  -13.8 °C 1028.0 in /  34808.1 hPa NNE 6.4 mph /  10.3 km/h 6.4 mph /  10.3 km/h 56 % 0.0 in /  0 mm
16:03 15.7 °F /  -9.1 °C 6.9 °F /  -13.9 °C 1027.0 in /  34774.2 hPa NNW 5.6 mph /  9 km/h 5.6 mph /  9 km/h 56 % 0.0 in /  0 mm
16:13 15.6 °F /  -9.1 °C 7.1 °F /  -13.8 °C 1027.0 in /  34774.2 hPa ENE 5.8 mph /  9.3 km/h 5.8 mph /  9.3 km/h 57 % 0.0 in /  0 mm
16:18 15.5 °F /  -9.2 °C 7.0 °F /  -13.9 °C 1028.0 in /  34808.1 hPa NNE 11.1 mph /  17.9 km/h 11.1 mph /  17.9 km/h 57 % 0.0 in /  0 mm
16:23 15.5 °F /  -9.2 °C 7.0 °F /  -13.9 °C 1028.0 in /  34808.1 hPa NNE 7.4 mph /  11.9 km/h 7.4 mph /  11.9 km/h 57 % 0.0 in /  0 mm
16:28 15.3 °F /  -9.3 °C 6.8 °F /  -14 °C 1028.0 in /  34808.1 hPa NE 7.4 mph /  11.9 km/h 7.4 mph /  11.9 km/h 57 % 0.0 in /  0 mm
16:33 15.3 °F /  -9.3 °C 6.8 °F /  -14 °C 1028.0 in /  34808.1 hPa North 5.6 mph /  9 km/h 5.6 mph /  9 km/h 57 % 0.0 in /  0 mm
16:38 15.2 °F /  -9.3 °C 6.7 °F /  -14.1 °C 1028.0 in /  34808.1 hPa NNE 3.7 mph /  6 km/h 3.7 mph /  6 km/h 57 % 0.0 in /  0 mm
16:43 15.3 °F /  -9.3 °C 7.1 °F /  -13.8 °C 1028.0 in /  34808.1 hPa ENE 3.7 mph /  6 km/h 3.7 mph /  6 km/h 58 % 0.0 in /  0 mm
16:48 15.2 °F /  -9.3 °C 7.0 °F /  -13.9 °C 1028.0 in /  34808.1 hPa North 5.6 mph /  9 km/h 5.6 mph /  9 km/h 58 % 0.0 in /  0 mm
16:53 15.2 °F /  -9.3 °C 7.0 °F /  -13.9 °C 1028.0 in /  34808.1 hPa NNW 2.6 mph /  4.2 km/h   58 % 0.0 in /  0 mm
16:58 15.1 °F /  -9.4 °C 6.9 °F /  -13.9 °C 1028.0 in /  34808.1 hPa ENE 3.7 mph /  6 km/h 3.7 mph /  6 km/h 58 % 0.0 in /  0 mm
17:03 15.0 °F /  -9.4 °C 6.8 °F /  -14 °C 1027.0 in /  34774.2 hPa NE 5.6 mph /  9 km/h 5.6 mph /  9 km/h 58 % 0.0 in /  0 mm
17:08 14.9 °F /  -9.5 °C 6.7 °F /  -14.1 °C 1027.0 in /  34774.2 hPa NNE 3.9 mph /  6.3 km/h 3.9 mph /  6.3 km/h 58 % 0.0 in /  0 mm
17:13 14.8 °F /  -9.6 °C 6.6 °F /  -14.1 °C 1027.0 in /  34774.2 hPa ENE 5.6 mph /  9 km/h 5.6 mph /  9 km/h 58 % 0.0 in /  0 mm
17:18 14.6 °F /  -9.7 °C 6.7 °F /  -14.1 °C 1028.0 in /  34808.1 hPa NNE 5.6 mph /  9 km/h 5.6 mph /  9 km/h 59 % 0.0 in /  0 mm
17:23 14.5 °F /  -9.7 °C 6.6 °F /  -14.1 °C 1028.0 in /  34808.1 hPa NNW 5.0 mph /  8 km/h 5.0 mph /  8 km/h 59 % 0.0 in /  0 mm
17:28 14.3 °F /  -9.8 °C 6.4 °F /  -14.2 °C 1028.0 in /  34808.1 hPa NNE 3.7 mph /  6 km/h 3.7 mph /  6 km/h 59 % 0.0 in /  0 mm
17:33 14.1 °F /  -9.9 °C 6.4 °F /  -14.2 °C 1028.0 in /  34808.1 hPa NNE 3.7 mph /  6 km/h 3.7 mph /  6 km/h 60 % 0.0 in /  0 mm
17:38 14.0 °F /  -10 °C 6.3 °F /  -14.3 °C 1028.0 in /  34808.1 hPa ENE 5.6 mph /  9 km/h 5.6 mph /  9 km/h 60 % 0.0 in /  0 mm
17:43 13.8 °F /  -10.1 °C 6.2 °F /  -14.3 °C 1028.0 in /  34808.1 hPa NNE 4.7 mph /  7.6 km/h 4.7 mph /  7.6 km/h 60 % 0.0 in /  0 mm
17:48 13.7 °F /  -10.2 °C 6.3 °F /  -14.3 °C 1028.0 in /  34808.1 hPa NNE 3.7 mph /  6 km/h 3.7 mph /  6 km/h 61 % 0.0 in /  0 mm
17:53 13.5 °F /  -10.3 °C 6.1 °F /  -14.4 °C 1028.0 in /  34808.1 hPa Calm     61 % 0.0 in /  0 mm
17:58 13.5 °F /  -10.3 °C 6.1 °F /  -14.4 °C 1028.0 in /  34808.1 hPa WNW 3.7 mph /  6 km/h 3.7 mph /  6 km/h 61 % 0.0 in /  0 mm
18:03 13.4 °F /  -10.3 °C 6.0 °F /  -14.4 °C 1029.0 in /  34841.9 hPa West 3.7 mph /  6 km/h 3.7 mph /  6 km/h 61 % 0.0 in /  0 mm
18:08 13.2 °F /  -10.4 °C 6.1 °F /  -14.4 °C 1029.0 in /  34841.9 hPa WNW 1.9 mph /  3.1 km/h   62 % 0.0 in /  0 mm
18:13 13.1 °F /  -10.5 °C 6.0 °F /  -14.4 °C 1029.0 in /  34841.9 hPa Calm     62 % 0.0 in /  0 mm
18:18 13.0 °F /  -10.6 °C 5.9 °F /  -14.5 °C 1029.0 in /  34841.9 hPa NW 5.6 mph /  9 km/h 5.6 mph /  9 km/h 62 % 0.0 in /  0 mm
18:23 12.9 °F /  -10.6 °C 5.8 °F /  -14.6 °C 1029.0 in /  34841.9 hPa ENE 2.3 mph /  3.7 km/h   62 % 0.0 in /  0 mm
18:28 12.8 °F /  -10.7 °C 5.9 °F /  -14.5 °C 1029.0 in /  34841.9 hPa Calm     63 % 0.0 in /  0 mm
18:33 12.8 °F /  -10.7 °C 5.7 °F /  -14.6 °C 1030.0 in /  34875.8 hPa WNW 2.6 mph /  4.2 km/h 2.6 mph /  4.2 km/h 62 % 0.0 in /  0 mm
18:38 12.6 °F /  -10.8 °C 5.7 °F /  -14.6 °C 1030.0 in /  34875.8 hPa WNW 3.7 mph /  6 km/h 3.7 mph /  6 km/h 63 % 0.0 in /  0 mm
18:43 12.6 °F /  -10.8 °C 5.7 °F /  -14.6 °C 1030.0 in /  34875.8 hPa West 3.7 mph /  6 km/h 3.7 mph /  6 km/h 63 % 0.0 in /  0 mm
18:48 12.5 °F /  -10.8 °C 5.7 °F /  -14.6 °C 1030.0 in /  34875.8 hPa West 2.3 mph /  3.7 km/h 2.3 mph /  3.7 km/h 63 % 0.0 in /  0 mm
18:53 12.4 °F /  -10.9 °C 5.8 °F /  -14.6 °C 1030.0 in /  34875.8 hPa Calm     64 % 0.0 in /  0 mm
18:58 12.3 °F /  -10.9 °C 5.7 °F /  -14.6 °C 1030.0 in /  34875.8 hPa West 1.9 mph /  3.1 km/h   64 % 0.0 in /  0 mm
19:08 12.3 °F /  -10.9 °C 5.7 °F /  -14.6 °C 1030.0 in /  34875.8 hPa Calm     64 % 0.0 in /  0 mm
19:13 12.3 °F /  -10.9 °C 5.7 °F /  -14.6 °C 1030.0 in /  34875.8 hPa West 3.7 mph /  6 km/h 3.7 mph /  6 km/h 64 % 0.0 in /  0 mm
19:18 12.1 °F /  -11.1 °C 5.5 °F /  -14.7 °C 1030.0 in /  34875.8 hPa Calm     64 % 0.0 in /  0 mm
19:28 12.1 °F /  -11.1 °C 5.7 °F /  -14.6 °C 1030.0 in /  34875.8 hPa Calm     65 % 0.0 in /  0 mm
19:33 12.1 °F /  -11.1 °C 5.7 °F /  -14.6 °C 1030.0 in /  34875.8 hPa Calm     65 % 0.0 in /  0 mm
19:38 12.1 °F /  -11.1 °C 5.7 °F /  -14.6 °C 1030.0 in /  34875.8 hPa Calm     65 % 0.0 in /  0 mm
19:43 12.1 °F /  -11.1 °C 5.7 °F /  -14.6 °C 1030.0 in /  34875.8 hPa SW 3.9 mph /  6.3 km/h   65 % 0.0 in /  0 mm
19:48 11.3 °F /  -11.5 °C 4.9 °F /  -15.1 °C 1030.0 in /  34875.8 hPa SW 3.7 mph /  6 km/h 3.7 mph /  6 km/h 65 % 0.0 in /  0 mm
19:53 11.1 °F /  -11.6 °C 4.8 °F /  -15.1 °C 1030.0 in /  34875.8 hPa Calm     65 % 0.0 in /  0 mm
19:58 11.2 °F /  -11.6 °C 5.1 °F /  -14.9 °C 1030.0 in /  34875.8 hPa SW 1.9 mph /  3.1 km/h 1.9 mph /  3.1 km/h 66 % 0.0 in /  0 mm
20:03 11.2 °F /  -11.6 °C 5.1 °F /  -14.9 °C 1030.0 in /  34875.8 hPa Calm     66 % 0.0 in /  0 mm
20:08 11.2 °F /  -11.6 °C 5.3 °F /  -14.8 °C 1030.0 in /  34875.8 hPa Calm     67 % 0.0 in /  0 mm
20:13 11.3 °F /  -11.5 °C 5.2 °F /  -14.9 °C 1030.0 in /  34875.8 hPa WSW 1.9 mph /  3.1 km/h 1.9 mph /  3.1 km/h 66 % 0.0 in /  0 mm
20:18 11.3 °F /  -11.5 °C 5.2 °F /  -14.9 °C 1030.0 in /  34875.8 hPa West 3.7 mph /  6 km/h 3.7 mph /  6 km/h 66 % 0.0 in /  0 mm
20:23 11.4 °F /  -11.4 °C 5.3 °F /  -14.8 °C 1030.0 in /  34875.8 hPa West 3.7 mph /  6 km/h 3.7 mph /  6 km/h 66 % 0.0 in /  0 mm
20:28 11.4 °F /  -11.4 °C 5.5 °F /  -14.7 °C 1030.0 in /  34875.8 hPa West 3.7 mph /  6 km/h 3.7 mph /  6 km/h 67 % 0.0 in /  0 mm
20:38 11.3 °F /  -11.5 °C 5.4 °F /  -14.8 °C 1030.0 in /  34875.8 hPa WSW 1.9 mph /  3.1 km/h 1.9 mph /  3.1 km/h 67 % 0.0 in /  0 mm
20:43 11.3 °F /  -11.5 °C 5.4 °F /  -14.8 °C 1030.0 in /  34875.8 hPa Calm     67 % 0.0 in /  0 mm
20:48 11.3 °F /  -11.5 °C 5.4 °F /  -14.8 °C 1030.0 in /  34875.8 hPa West 3.7 mph /  6 km/h 3.7 mph /  6 km/h 67 % 0.0 in /  0 mm
20:53 11.3 °F /  -11.5 °C 5.4 °F /  -14.8 °C 1030.0 in /  34875.8 hPa WSW 3.9 mph /  6.3 km/h 3.9 mph /  6.3 km/h 67 % 0.0 in /  0 mm
20:58 11.2 °F /  -11.6 °C 5.3 °F /  -14.8 °C 1030.0 in /  34875.8 hPa West 3.7 mph /  6 km/h 4.2 mph /  6.8 km/h 67 % 0.0 in /  0 mm
21:03 11.2 °F /  -11.6 °C 5.3 °F /  -14.8 °C 1030.0 in /  34875.8 hPa SW 3.7 mph /  6 km/h 3.7 mph /  6 km/h 67 % 0.0 in /  0 mm
21:05 7.0 °F /  -13.9 °C 3.6 °F /  -15.8 °C 1030.0 in /  34875.8 hPa Calm   1.6 mph /  2.6 km/h 79 % 0.0 in /  0 mm
21:08 11.1 °F /  -11.6 °C 5.2 °F /  -14.9 °C 1030.0 in /  34875.8 hPa WSW 3.9 mph /  6.3 km/h 3.9 mph /  6.3 km/h 67 % 0.0 in /  0 mm
21:13 11.2 °F /  -11.6 °C 5.3 °F /  -14.8 °C 1030.0 in /  34875.8 hPa West 4.2 mph /  6.8 km/h 4.2 mph /  6.8 km/h 67 % 0.0 in /  0 mm
21:23 11.0 °F /  -11.7 °C 5.3 °F /  -14.8 °C 1030.0 in /  34875.8 hPa West 3.7 mph /  6 km/h 3.7 mph /  6 km/h 68 % 0.0 in /  0 mm
21:28 10.8 °F /  -11.8 °C 5.1 °F /  -14.9 °C 1030.0 in /  34875.8 hPa WSW 4.2 mph /  6.8 km/h 4.2 mph /  6.8 km/h 68 % 0.0 in /  0 mm
21:33 10.7 °F /  -11.8 °C 5.1 °F /  -14.9 °C 1030.0 in /  34875.8 hPa West 3.7 mph /  6 km/h 3.7 mph /  6 km/h 68 % 0.0 in /  0 mm
21:35 6.8 °F /  -14 °C 3.4 °F /  -15.9 °C 1030.0 in /  34875.8 hPa West 1.6 mph /  2.6 km/h 1.6 mph /  2.6 km/h 79 % 0.0 in /  0 mm
21:38 10.6 °F /  -11.9 °C 4.9 °F /  -15.1 °C 1030.0 in /  34875.8 hPa WSW 4.2 mph /  6.8 km/h 4.2 mph /  6.8 km/h 68 % 0.0 in /  0 mm
21:43 10.6 °F /  -11.9 °C 4.9 °F /  -15.1 °C 1030.0 in /  34875.8 hPa West 3.7 mph /  6 km/h 3.7 mph /  6 km/h 68 % 0.0 in /  0 mm
21:45 6.8 °F /  -14 °C 3.4 °F /  -15.9 °C 1030.0 in /  34875.8 hPa Calm   1.6 mph /  2.6 km/h 79 % 0.0 in /  0 mm
21:48 10.6 °F /  -11.9 °C 5.2 °F /  -14.9 °C 1030.0 in /  34875.8 hPa SW 3.7 mph /  6 km/h 3.7 mph /  6 km/h 69 % 0.0 in /  0 mm
21:53 10.5 °F /  -11.9 °C 5.1 °F /  -14.9 °C 1030.0 in /  34875.8 hPa SW 1.9 mph /  3.1 km/h   69 % 0.0 in /  0 mm
21:55 6.8 °F /  -14 °C 3.6 °F /  -15.8 °C 1030.0 in /  34875.8 hPa Calm     80 % 0.0 in /  0 mm
21:58 10.4 °F /  -12 °C 5.2 °F /  -14.9 °C 1030.0 in /  34875.8 hPa SW 1.9 mph /  3.1 km/h 1.9 mph /  3.1 km/h 70 % 0.0 in /  0 mm
22:03 10.4 °F /  -12 °C 5.2 °F /  -14.9 °C 1030.7 in /  34899.5 hPa WSW 1.9 mph /  3.1 km/h 1.9 mph /  3.1 km/h 70 % 0.0 in /  0 mm
22:05 6.6 °F /  -14.1 °C 3.2 °F /  -16 °C 1030.0 in /  34875.8 hPa Calm     79 % 0.0 in /  0 mm
22:08 10.3 °F /  -12.1 °C 5.1 °F /  -14.9 °C 1030.7 in /  34899.5 hPa WSW 2.3 mph /  3.7 km/h 2.3 mph /  3.7 km/h 70 % 0.0 in /  0 mm
22:13 10.3 °F /  -12.1 °C 5.1 °F /  -14.9 °C 1030.7 in /  34899.5 hPa NE 3.9 mph /  6.3 km/h   70 % 0.0 in /  0 mm
22:15 6.5 °F /  -14.2 °C 3.1 °F /  -16.1 °C 1030.0 in /  34875.8 hPa NW 1.6 mph /  2.6 km/h 1.6 mph /  2.6 km/h 79 % 0.0 in /  0 mm
22:23 9.5 °F /  -12.5 °C 4.3 °F /  -15.4 °C 1030.7 in /  34899.5 hPa NNE 3.9 mph /  6.3 km/h 3.9 mph /  6.3 km/h 70 % 0.0 in /  0 mm
22:25 6.4 °F /  -14.2 °C 3.0 °F /  -16.1 °C 1029.0 in /  34841.9 hPa Calm   3.2 mph /  5.1 km/h 79 % 0.0 in /  0 mm
22:33 9.6 °F /  -12.4 °C 4.4 °F /  -15.3 °C 1030.7 in /  34899.5 hPa WNW 3.7 mph /  6 km/h 3.7 mph /  6 km/h 70 % 0.0 in /  0 mm
22:35 6.4 °F /  -14.2 °C 3.0 °F /  -16.1 °C 1029.0 in /  34841.9 hPa Calm     79 % 0.0 in /  0 mm
22:38 9.6 °F /  -12.4 °C 4.6 °F /  -15.2 °C 1030.7 in /  34899.5 hPa Calm     71 % 0.0 in /  0 mm
22:43 9.4 °F /  -12.6 °C 4.4 °F /  -15.3 °C 1030.7 in /  34899.5 hPa Calm     71 % 0.0 in /  0 mm
22:48 9.3 °F /  -12.6 °C 4.3 °F /  -15.4 °C 1030.7 in /  34899.5 hPa Calm     71 % 0.0 in /  0 mm
22:53 9.2 °F /  -12.7 °C 4.4 °F /  -15.3 °C 1030.7 in /  34899.5 hPa West 1.9 mph /  3.1 km/h   72 % 0.0 in /  0 mm
22:55 6.5 °F /  -14.2 °C 3.3 °F /  -15.9 °C 1029.0 in /  34841.9 hPa NW 1.6 mph /  2.6 km/h 1.6 mph /  2.6 km/h 80 % 0.0 in /  0 mm
22:58 9.1 °F /  -12.7 °C 4.3 °F /  -15.4 °C 1030.7 in /  34899.5 hPa Calm     72 % 0.0 in /  0 mm
23:08 8.8 °F /  -12.9 °C 4.0 °F /  -15.6 °C 1030.0 in /  34875.8 hPa West 2.6 mph /  4.2 km/h 2.6 mph /  4.2 km/h 72 % 0.0 in /  0 mm
23:15 6.5 °F /  -14.2 °C 3.3 °F /  -15.9 °C 1029.0 in /  34841.9 hPa Calm     80 % 0.0 in /  0 mm
23:18 8.8 °F /  -12.9 °C 4.2 °F /  -15.4 °C 1030.7 in /  34899.5 hPa Calm     73 % 0.0 in /  0 mm
23:23 8.7 °F /  -12.9 °C 4.3 °F /  -15.4 °C 1030.7 in /  34899.5 hPa Calm     74 % 0.0 in /  0 mm
23:25 6.2 °F /  -14.3 °C 3.0 °F /  -16.1 °C 1029.0 in /  34841.9 hPa Calm   1.6 mph /  2.6 km/h 80 % 0.0 in /  0 mm
23:28 8.7 °F /  -12.9 °C 4.3 °F /  -15.4 °C 1030.7 in /  34899.5 hPa Calm     74 % 0.0 in /  0 mm
23:33 8.6 °F /  -13 °C 4.2 °F /  -15.4 °C 1030.7 in /  34899.5 hPa Calm     74 % 0.0 in /  0 mm
23:35 6.1 °F /  -14.4 °C 2.9 °F /  -16.2 °C 1029.0 in /  34841.9 hPa Calm   1.6 mph /  2.6 km/h 80 % 0.0 in /  0 mm
23:38 8.6 °F /  -13 °C 4.2 °F /  -15.4 °C 1030.7 in /  34899.5 hPa Calm     74 % 0.0 in /  0 mm
23:43 8.5 °F /  -13.1 °C 4.1 °F /  -15.5 °C 1030.7 in /  34899.5 hPa West 1.9 mph /  3.1 km/h 2.3 mph /  3.7 km/h 74 % 0.0 in /  0 mm
23:45 6.0 °F /  -14.4 °C 2.8 °F /  -16.2 °C 1029.0 in /  34841.9 hPa West 1.6 mph /  2.6 km/h 3.2 mph /  5.1 km/h 80 % 0.0 in /  0 mm
23:48 8.4 °F /  -13.1 °C 4.1 °F /  -15.5 °C 1030.7 in /  34899.5 hPa West 2.3 mph /  3.7 km/h 2.3 mph /  3.7 km/h 74 % 0.0 in /  0 mm
23:53 8.3 °F /  -13.2 °C 3.9 °F /  -15.6 °C 1030.7 in /  34899.5 hPa West 3.7 mph /  6 km/h 3.7 mph /  6 km/h 74 % 0.0 in /  0 mm
23:55 6.1 °F /  -14.4 °C 2.9 °F /  -16.2 °C 1029.0 in /  34841.9 hPa West 1.6 mph /  2.6 km/h 3.2 mph /  5.1 km/h 80 % 0.0 in /  0 mm
Meteo Sesrovires
Elogis d' Weather Underground - 4 mb

Guio original per  Jim McMurry - jmcmurry@mwt.net Adaptat per a la plantilla per  Wim van der Kuil - Leuven-Template.eu

Trobareu la nostra informacio del temps tambe a:

Weather Underground

AWEKAS